This is the latest recevied weather packets stored in our database for station/object JI8TEY-15. If no packets are shown the sender has not sent any weather packets the latest 10 day(s).
| Time | Temp. | Humidity | Pressure | Rain* | Wind** | Luminosity | Snow |
|---|---|---|---|---|---|---|---|
| 1777658255 | 10.56° C | 99% | 987 hPa | 0 mm | - | - | - |
| 1777654653 | 10.56° C | 99% | 987 hPa | 0 mm | - | - | - |
| 1777651055 | 10.56° C | 99% | 988 hPa | 0 mm | - | - | - |
| 1777647455 | 10.56° C | 99% | 990 hPa | 0 mm | - | - | - |
| 1777643855 | 11.11° C | 98% | 991 hPa | 0 mm | - | - | - |
| 1777640254 | 11.11° C | 97% | 994 hPa | 0 mm | - | - | - |
| 1777636655 | 11.67° C | 97% | 995 hPa | 8.38 mm | - | - | - |
| 1777633054 | 11.67° C | 96% | 998 hPa | 4.32 mm | - | - | - |
| 1777629455 | 11.67° C | 96% | 998 hPa | 2.03 mm | - | - | - |
| 1777625853 | 11.67° C | 95% | 1000 hPa | 5.33 mm | - | - | - |
| 1777622254 | 11.67° C | 94% | 1001 hPa | 1.02 mm | - | - | - |
| 1777618654 | 11.11° C | 88% | 1002 hPa | 3.3 mm | - | - | - |
| 1777615054 | 11.11° C | 87% | 1004 hPa | 1.02 mm | - | - | - |
| 1777611455 | 13.33° C | 56% | 1005 hPa | 0 mm | - | - | - |
| 1777607854 | 14.44° C | 56% | 1005 hPa | 0 mm | - | - | - |
| 1777604253 | 17.22° C | 55% | 1007 hPa | 0 mm | - | - | - |
| 1777600653 | 18.89° C | 54% | 1008 hPa | 0 mm | - | - | - |
| 1777597053 | 17.78° C | 55% | 1009 hPa | 0 mm | - | - | - |
| 1777593454 | 17.22° C | 55% | 1009 hPa | 0 mm | - | - | - |
| 1777589854 | 16.11° C | 55% | 1009 hPa | 0 mm | - | - | - |
| 1777586255 | 13.33° C | 56% | 1011 hPa | 0 mm | - | - | - |
| 1777582654 | 10.56° C | 77% | 1012 hPa | 0 mm | - | - | - |
| 1777579054 | 7.22° C | 92% | 1012 hPa | 0 mm | - | - | - |
| 1777575454 | 7.22° C | 92% | 1013 hPa | 0 mm | - | - | - |
| 1777571854 | 7.22° C | 93% | 1014 hPa | 0 mm | - | - | - |
* Rain latest hour (hover to see other rain measurements)
** Current wind speed in m/s (hover to see current wind gust speed)